Terminal Aerodrome Forecast
Issued by NWS

Home | Current Version | Previous Version | Text Only | Print | Product List | Glossary On
Versions: 1 2 3 4 5 6 7 8 9 10 11 12 13 14 15
374
FTUS43 KEAX 221120
TAFSTJ
TAF
KSTJ 221120Z 2212/2312 07006KT P6SM FEW110
     FM221700 11011KT P6SM BKN120
     FM230600 13012KT P6SM VCSH BKN035
     FM230700 14012KT P6SM VCSH OVC030
     FM231100 15011KT P6SM VCSH OVC015=

USA.gov is the U.S. government's official web portal to all federal, state and local government web resources and services.